Chisholm Hibbing Airport
KHIB : rendu visible

Aérodrome :











RETROUVEZ-NOUS SUR...

 
LOGIN :

S'inscrire | Disclaimer

   EN    FR    IT 

 









Légende :    VFR   VFR Marginal   IFR   IFR Intensif   IFR Très Intensif
Visi : 
Plafond : 
>= 8 km
>= 3000ft
5 à 8 km
1000 à 3000 ft
1500m à 5 km
500 à 1000 ft
800 à 1500m
200 à 500 ft
< 800m
< 200 ft
Symboles :   Orages  Brouillard  Fortes neiges  Fortes précipitations  Vent > 20 kt






- Altitude de l'aérodrome : 1354 ft
- Code IATA : HIB


KHIB - Chisholm Hibbing

DERNIER METAR :
  • 290253Z AUTO 05012G17KT 10SM OVC043 05/M03 A2970 RMK AO2 SLP072 T00501028 58009

METARs EXPIRÉS :
  • 290153Z AUTO 08010G21KT 10SM FEW080 06/M03 A2974 RMK AO2 SLP084 T00561028
  • 290053Z AUTO 08006KT 10SM SCT120 06/M03 A2973 RMK AO2 SLP082 T00611028

TAF KHIB
Valide du 29 à 00h jusqu'au 30 à 00h UTC


282332Z 2900/2924 08010KT P6SM SCT070 OVC100
FM290400 04012G22KT 6SM -RA OVC050 WS020/07040KT
FM290600 02012G22KT 6SM -SNRA BR OVC030 WS020/06040KT
FM290900 01016G28KT 2SM -SN BR OVC010 WS020/05045KT
FM291500 35018G26KT 6SM -RASN OVC015 WS020/02050KT
FM291800 35020G25KT P6SM BKN045
FM292300 34013KT P6SM SCT050 BKN150



MET'MAP, la Météo Aéronautique d'un coup d'oeil ! - Copyright ORBIFLY Décembre 2007 - Disclaimer

ORBIFLY MET'MAP TEAM :

Programmation & Développement : Alexandra Zaïnal
Sur une idée originale de : Baudouin d'Aumeries
Assistance à la programmation : Marc-Olivier Méhu
Soutien technique & logistique : Manuel Goepfert

Contact : metmap@orbifly.com




SOURCES & CREDITS :

   NOAA       Earth
Advisory